sensor_id;sensor_type;location;lat;lon;timestamp;temperature;humidity
1063;DHT22;520;50.932;6.962;2022-07-15T00:00:47;21.30;65.80
1063;DHT22;520;50.932;6.962;2022-07-15T00:03:33;21.30;65.70
1063;DHT22;520;50.932;6.962;2022-07-15T00:06:38;21.30;66.30
1063;DHT22;520;50.932;6.962;2022-07-15T00:09:10;21.30;66.50
1063;DHT22;520;50.932;6.962;2022-07-15T00:11:38;21.30;66.60
1063;DHT22;520;50.932;6.962;2022-07-15T00:14:05;21.10;67.20
1063;DHT22;520;50.932;6.962;2022-07-15T00:16:58;21.00;68.00
1063;DHT22;520;50.932;6.962;2022-07-15T00:19:28;21.10;68.30
1063;DHT22;520;50.932;6.962;2022-07-15T00:22:00;21.00;68.70
1063;DHT22;520;50.932;6.962;2022-07-15T00:24:30;20.90;69.30
1063;DHT22;520;50.932;6.962;2022-07-15T00:26:57;20.90;69.60
1063;DHT22;520;50.932;6.962;2022-07-15T00:29:25;20.90;70.30
1063;DHT22;520;50.932;6.962;2022-07-15T00:31:56;20.70;70.50
1063;DHT22;520;50.932;6.962;2022-07-15T00:34:27;20.70;71.20
1063;DHT22;520;50.932;6.962;2022-07-15T00:36:56;20.70;71.50
1063;DHT22;520;50.932;6.962;2022-07-15T00:39:24;20.60;71.80
1063;DHT22;520;50.932;6.962;2022-07-15T00:41:56;20.50;72.60
1063;DHT22;520;50.932;6.962;2022-07-15T00:44:32;20.40;73.80
1063;DHT22;520;50.932;6.962;2022-07-15T00:47:02;20.40;74.80
1063;DHT22;520;50.932;6.962;2022-07-15T00:49:38;20.50;74.60
1063;DHT22;520;50.932;6.962;2022-07-15T00:52:12;20.30;75.50
1063;DHT22;520;50.932;6.962;2022-07-15T00:54:48;20.30;76.60
1063;DHT22;520;50.932;6.962;2022-07-15T00:57:16;20.30;76.40
1063;DHT22;520;50.932;6.962;2022-07-15T01:00:02;20.20;77.60
1063;DHT22;520;50.932;6.962;2022-07-15T01:02:39;20.20;77.70
1063;DHT22;520;50.932;6.962;2022-07-15T01:05:17;20.30;78.10
1063;DHT22;520;50.932;6.962;2022-07-15T01:07:53;20.40;78.10
1063;DHT22;520;50.932;6.962;2022-07-15T01:10:27;20.20;79.10
1063;DHT22;520;50.932;6.962;2022-07-15T01:13:08;20.00;80.10
1063;DHT22;520;50.932;6.962;2022-07-15T01:15:50;20.10;79.70
1063;DHT22;520;50.932;6.962;2022-07-15T01:18:17;19.90;80.30
1063;DHT22;520;50.932;6.962;2022-07-15T01:20:49;19.80;80.80
1063;DHT22;520;50.932;6.962;2022-07-15T01:23:31;19.90;81.40
1063;DHT22;520;50.932;6.962;2022-07-15T01:26:02;19.90;81.30
1063;DHT22;520;50.932;6.962;2022-07-15T01:28:43;19.80;82.60
1063;DHT22;520;50.932;6.962;2022-07-15T01:31:44;19.80;82.40
1063;DHT22;520;50.932;6.962;2022-07-15T01:34:14;19.90;81.70
1063;DHT22;520;50.932;6.962;2022-07-15T01:36:53;19.90;82.20
1063;DHT22;520;50.932;6.962;2022-07-15T01:39:41;19.80;83.10
1063;DHT22;520;50.932;6.962;2022-07-15T01:42:09;19.60;83.20
1063;DHT22;520;50.932;6.962;2022-07-15T01:44:36;19.80;83.70
1063;DHT22;520;50.932;6.962;2022-07-15T01:47:12;19.70;84.10
1063;DHT22;520;50.932;6.962;2022-07-15T01:49:39;19.80;84.90
1063;DHT22;520;50.932;6.962;2022-07-15T01:52:06;19.70;84.60
1063;DHT22;520;50.932;6.962;2022-07-15T01:54:36;19.70;85.20
1063;DHT22;520;50.932;6.962;2022-07-15T01:57:03;19.70;85.00
1063;DHT22;520;50.932;6.962;2022-07-15T01:59:34;19.80;85.10
1063;DHT22;520;50.932;6.962;2022-07-15T02:02:01;19.80;85.40
1063;DHT22;520;50.932;6.962;2022-07-15T02:04:50;19.70;85.50
1063;DHT22;520;50.932;6.962;2022-07-15T02:07:19;20.00;84.60
1063;DHT22;520;50.932;6.962;2022-07-15T02:09:45;19.80;84.10
1063;DHT22;520;50.932;6.962;2022-07-15T02:12:12;19.70;84.90
1063;DHT22;520;50.932;6.962;2022-07-15T02:14:39;19.70;85.30
1063;DHT22;520;50.932;6.962;2022-07-15T02:17:09;19.80;84.70
1063;DHT22;520;50.932;6.962;2022-07-15T02:19:39;19.70;84.60
1063;DHT22;520;50.932;6.962;2022-07-15T02:22:07;19.70;84.70
1063;DHT22;520;50.932;6.962;2022-07-15T02:24:35;19.70;84.80
1063;DHT22;520;50.932;6.962;2022-07-15T02:27:03;20.00;84.10
1063;DHT22;520;50.932;6.962;2022-07-15T02:29:30;19.80;83.80
1063;DHT22;520;50.932;6.962;2022-07-15T02:31:58;19.80;83.70
1063;DHT22;520;50.932;6.962;2022-07-15T02:34:29;19.70;84.30
1063;DHT22;520;50.932;6.962;2022-07-15T02:36:55;19.70;84.40
1063;DHT22;520;50.932;6.962;2022-07-15T02:39:27;19.60;85.00
1063;DHT22;520;50.932;6.962;2022-07-15T02:41:58;19.50;85.20
1063;DHT22;520;50.932;6.962;2022-07-15T02:44:36;19.30;86.00
1063;DHT22;520;50.932;6.962;2022-07-15T02:47:05;19.20;86.30
1063;DHT22;520;50.932;6.962;2022-07-15T02:49:49;19.20;85.60
1063;DHT22;520;50.932;6.962;2022-07-15T02:52:16;19.30;84.50
1063;DHT22;520;50.932;6.962;2022-07-15T02:54:49;19.30;84.20
1063;DHT22;520;50.932;6.962;2022-07-15T02:57:21;19.30;84.10
1063;DHT22;520;50.932;6.962;2022-07-15T02:59:52;19.40;84.50
1063;DHT22;520;50.932;6.962;2022-07-15T03:02:20;19.30;84.40
1063;DHT22;520;50.932;6.962;2022-07-15T03:05:06;19.20;84.50
1063;DHT22;520;50.932;6.962;2022-07-15T03:07:36;19.40;84.30
1063;DHT22;520;50.932;6.962;2022-07-15T03:10:24;19.30;84.60
1063;DHT22;520;50.932;6.962;2022-07-15T03:12:54;19.30;85.10
1063;DHT22;520;50.932;6.962;2022-07-15T03:15:38;19.30;85.10
1063;DHT22;520;50.932;6.962;2022-07-15T03:18:05;19.30;85.40
1063;DHT22;520;50.932;6.962;2022-07-15T03:20:36;19.30;85.60
1063;DHT22;520;50.932;6.962;2022-07-15T03:23:06;19.40;85.20
1063;DHT22;520;50.932;6.962;2022-07-15T03:25:37;19.20;85.50
1063;DHT22;520;50.932;6.962;2022-07-15T03:28:10;19.20;86.70
1063;DHT22;520;50.932;6.962;2022-07-15T03:30:37;19.30;86.00
1063;DHT22;520;50.932;6.962;2022-07-15T03:33:08;19.20;86.30
1063;DHT22;520;50.932;6.962;2022-07-15T03:35:35;19.20;86.10
1063;DHT22;520;50.932;6.962;2022-07-15T03:38:02;19.30;85.90
1063;DHT22;520;50.932;6.962;2022-07-15T03:41:00;19.20;86.40
1063;DHT22;520;50.932;6.962;2022-07-15T03:43:27;19.20;86.80
1063;DHT22;520;50.932;6.962;2022-07-15T03:46:04;19.20;87.40
1063;DHT22;520;50.932;6.962;2022-07-15T03:49:02;19.20;87.70
1063;DHT22;520;50.932;6.962;2022-07-15T03:54:37;19.10;88.20
1063;DHT22;520;50.932;6.962;2022-07-15T03:57:07;19.20;87.90
1063;DHT22;520;50.932;6.962;2022-07-15T03:59:37;19.20;88.20
1063;DHT22;520;50.932;6.962;2022-07-15T04:02:04;19.20;88.30
1063;DHT22;520;50.932;6.962;2022-07-15T04:04:32;19.30;88.50
1063;DHT22;520;50.932;6.962;2022-07-15T04:06:59;19.20;88.50
1063;DHT22;520;50.932;6.962;2022-07-15T04:09:27;19.20;89.00
1063;DHT22;520;50.932;6.962;2022-07-15T04:11:54;19.10;89.40
1063;DHT22;520;50.932;6.962;2022-07-15T04:14:20;19.00;89.50
1063;DHT22;520;50.932;6.962;2022-07-15T04:16:48;19.00;90.00
1063;DHT22;520;50.932;6.962;2022-07-15T04:19:16;18.90;90.10
1063;DHT22;520;50.932;6.962;2022-07-15T04:21:44;18.90;90.40
1063;DHT22;520;50.932;6.962;2022-07-15T04:24:11;19.00;90.50
1063;DHT22;520;50.932;6.962;2022-07-15T04:26:38;19.00;90.70
1063;DHT22;520;50.932;6.962;2022-07-15T04:29:07;19.00;91.00
1063;DHT22;520;50.932;6.962;2022-07-15T04:31:48;18.90;91.30
1063;DHT22;520;50.932;6.962;2022-07-15T04:34:17;18.90;91.80
1063;DHT22;520;50.932;6.962;2022-07-15T04:37:05;18.80;92.20
1063;DHT22;520;50.932;6.962;2022-07-15T04:39:34;18.80;92.50
1063;DHT22;520;50.932;6.962;2022-07-15T04:42:05;18.80;92.80
1063;DHT22;520;50.932;6.962;2022-07-15T04:44:32;18.80;93.00
1063;DHT22;520;50.932;6.962;2022-07-15T04:47:02;18.80;93.10
1063;DHT22;520;50.932;6.962;2022-07-15T04:49:55;18.80;93.30
1063;DHT22;520;50.932;6.962;2022-07-15T04:53:10;18.90;93.20
1063;DHT22;520;50.932;6.962;2022-07-15T04:55:37;18.90;93.10
1063;DHT22;520;50.932;6.962;2022-07-15T04:58:09;18.90;93.30
1063;DHT22;520;50.932;6.962;2022-07-15T05:00:47;18.90;93.50
1063;DHT22;520;50.932;6.962;2022-07-15T05:03:17;18.90;93.20
1063;DHT22;520;50.932;6.962;2022-07-15T05:05:54;18.90;93.10
1063;DHT22;520;50.932;6.962;2022-07-15T05:08:20;19.00;93.20
1063;DHT22;520;50.932;6.962;2022-07-15T05:10:55;19.10;93.10
1063;DHT22;520;50.932;6.962;2022-07-15T05:13:37;18.90;93.10
1063;DHT22;520;50.932;6.962;2022-07-15T05:16:04;19.00;93.20
1063;DHT22;520;50.932;6.962;2022-07-15T05:19:02;19.10;93.10
1063;DHT22;520;50.932;6.962;2022-07-15T05:21:30;19.10;93.00
1063;DHT22;520;50.932;6.962;2022-07-15T05:24:13;19.10;93.10
1063;DHT22;520;50.932;6.962;2022-07-15T05:27:18;19.10;93.20
1063;DHT22;520;50.932;6.962;2022-07-15T05:29:56;19.00;93.30
1063;DHT22;520;50.932;6.962;2022-07-15T05:32:22;19.10;93.30
1063;DHT22;520;50.932;6.962;2022-07-15T05:34:50;19.20;93.10
1063;DHT22;520;50.932;6.962;2022-07-15T05:40:14;19.20;93.00
1063;DHT22;520;50.932;6.962;2022-07-15T05:42:56;19.10;93.10
1063;DHT22;520;50.932;6.962;2022-07-15T05:45:26;19.10;93.20
1063;DHT22;520;50.932;6.962;2022-07-15T05:47:53;19.30;93.10
1063;DHT22;520;50.932;6.962;2022-07-15T05:50:27;19.30;93.30
1063;DHT22;520;50.932;6.962;2022-07-15T05:53:00;19.30;93.00
1063;DHT22;520;50.932;6.962;2022-07-15T05:55:32;19.30;93.00
1063;DHT22;520;50.932;6.962;2022-07-15T05:57:59;19.30;93.00
1063;DHT22;520;50.932;6.962;2022-07-15T06:00:26;19.30;93.00
1063;DHT22;520;50.932;6.962;2022-07-15T06:02:53;19.30;93.00
1063;DHT22;520;50.932;6.962;2022-07-15T06:05:28;19.30;92.90
1063;DHT22;520;50.932;6.962;2022-07-15T06:07:57;19.40;92.80
1063;DHT22;520;50.932;6.962;2022-07-15T06:10:28;19.50;92.50
1063;DHT22;520;50.932;6.962;2022-07-15T06:12:55;19.30;92.70
1063;DHT22;520;50.932;6.962;2022-07-15T06:15:31;19.30;92.90
1063;DHT22;520;50.932;6.962;2022-07-15T06:17:58;19.30;92.90
1063;DHT22;520;50.932;6.962;2022-07-15T06:20:27;19.40;93.00
1063;DHT22;520;50.932;6.962;2022-07-15T06:22:57;19.50;92.80
1063;DHT22;520;50.932;6.962;2022-07-15T06:25:49;19.30;92.70
1063;DHT22;520;50.932;6.962;2022-07-15T06:28:22;19.30;92.90
1063;DHT22;520;50.932;6.962;2022-07-15T06:30:52;19.30;93.30
1063;DHT22;520;50.932;6.962;2022-07-15T06:33:19;19.30;92.90
1063;DHT22;520;50.932;6.962;2022-07-15T06:35:46;19.40;92.80
1063;DHT22;520;50.932;6.962;2022-07-15T06:38:18;19.50;91.90
1063;DHT22;520;50.932;6.962;2022-07-15T06:40:45;19.50;91.50
1063;DHT22;520;50.932;6.962;2022-07-15T06:43:18;19.60;91.40
1063;DHT22;520;50.932;6.962;2022-07-15T06:45:47;19.60;91.30
1063;DHT22;520;50.932;6.962;2022-07-15T06:48:19;19.70;91.10
1063;DHT22;520;50.932;6.962;2022-07-15T06:50:54;19.80;91.00
1063;DHT22;520;50.932;6.962;2022-07-15T06:53:21;20.10;90.50
1063;DHT22;520;50.932;6.962;2022-07-15T06:56:04;20.30;88.10
1063;DHT22;520;50.932;6.962;2022-07-15T06:58:31;20.10;88.70
1063;DHT22;520;50.932;6.962;2022-07-15T07:00:58;20.10;89.10
1063;DHT22;520;50.932;6.962;2022-07-15T07:03:48;19.80;89.60
1063;DHT22;520;50.932;6.962;2022-07-15T07:09:44;19.50;90.80
1063;DHT22;520;50.932;6.962;2022-07-15T07:12:17;19.40;90.70
1063;DHT22;520;50.932;6.962;2022-07-15T07:14:46;19.50;90.80
1063;DHT22;520;50.932;6.962;2022-07-15T07:17:23;19.60;90.90
1063;DHT22;520;50.932;6.962;2022-07-15T07:19:58;19.70;90.70
1063;DHT22;520;50.932;6.962;2022-07-15T07:22:27;19.80;90.20
1063;DHT22;520;50.932;6.962;2022-07-15T07:25:14;19.70;89.10
1063;DHT22;520;50.932;6.962;2022-07-15T07:27:41;20.00;88.90
1063;DHT22;520;50.932;6.962;2022-07-15T07:30:18;20.00;88.00
1063;DHT22;520;50.932;6.962;2022-07-15T07:32:44;20.00;87.70
1063;DHT22;520;50.932;6.962;2022-07-15T07:35:14;20.10;86.30
1063;DHT22;520;50.932;6.962;2022-07-15T07:37:45;19.80;85.60
1063;DHT22;520;50.932;6.962;2022-07-15T07:40:18;19.80;86.20
1063;DHT22;520;50.932;6.962;2022-07-15T07:42:46;19.90;85.90
1063;DHT22;520;50.932;6.962;2022-07-15T07:45:19;20.10;84.20
1063;DHT22;520;50.932;6.962;2022-07-15T07:47:47;20.30;82.30
1063;DHT22;520;50.932;6.962;2022-07-15T07:50:19;20.50;80.90
1063;DHT22;520;50.932;6.962;2022-07-15T07:52:47;20.60;79.50
1063;DHT22;520;50.932;6.962;2022-07-15T07:55:23;20.60;77.60
1063;DHT22;520;50.932;6.962;2022-07-15T07:57:52;20.60;76.70
1063;DHT22;520;50.932;6.962;2022-07-15T08:00:25;20.60;74.30
1063;DHT22;520;50.932;6.962;2022-07-15T08:02:56;20.70;75.40
1063;DHT22;520;50.932;6.962;2022-07-15T08:05:30;21.10;75.70
1063;DHT22;520;50.932;6.962;2022-07-15T08:11:04;21.50;72.20
1063;DHT22;520;50.932;6.962;2022-07-15T08:13:38;22.10;68.60
1063;DHT22;520;50.932;6.962;2022-07-15T08:16:15;21.90;65.60
1063;DHT22;520;50.932;6.962;2022-07-15T08:19:03;22.10;61.50
1063;DHT22;520;50.932;6.962;2022-07-15T08:21:30;21.70;62.30
1063;DHT22;520;50.932;6.962;2022-07-15T08:24:08;22.50;57.50
1063;DHT22;520;50.932;6.962;2022-07-15T08:29:53;22.90;53.50
1063;DHT22;520;50.932;6.962;2022-07-15T08:32:36;23.90;51.20
1063;DHT22;520;50.932;6.962;2022-07-15T08:35:40;24.40;49.50
1063;DHT22;520;50.932;6.962;2022-07-15T08:38:12;23.90;49.90
1063;DHT22;520;50.932;6.962;2022-07-15T08:40:40;23.40;51.80
1063;DHT22;520;50.932;6.962;2022-07-15T08:43:45;23.60;52.60
1063;DHT22;520;50.932;6.962;2022-07-15T08:46:18;23.80;52.20
1063;DHT22;520;50.932;6.962;2022-07-15T08:49:07;24.80;49.50
1063;DHT22;520;50.932;6.962;2022-07-15T08:51:45;24.60;48.20
1063;DHT22;520;50.932;6.962;2022-07-15T08:54:29;24.70;48.10
1063;DHT22;520;50.932;6.962;2022-07-15T08:57:01;25.20;47.60
1063;DHT22;520;50.932;6.962;2022-07-15T08:59:29;24.60;49.10
1063;DHT22;520;50.932;6.962;2022-07-15T09:01:58;23.90;49.70
1063;DHT22;520;50.932;6.962;2022-07-15T09:04:26;23.40;51.00
1063;DHT22;520;50.932;6.962;2022-07-15T09:07:04;23.30;51.60
1063;DHT22;520;50.932;6.962;2022-07-15T09:09:35;23.30;51.70
1063;DHT22;520;50.932;6.962;2022-07-15T09:12:09;23.30;52.00
1063;DHT22;520;50.932;6.962;2022-07-15T09:14:43;23.00;52.30
1063;DHT22;520;50.932;6.962;2022-07-15T09:20:05;23.50;51.80
1063;DHT22;520;50.932;6.962;2022-07-15T09:22:52;23.10;52.80
1063;DHT22;520;50.932;6.962;2022-07-15T09:25:27;22.70;54.00
1063;DHT22;520;50.932;6.962;2022-07-15T09:28:20;22.40;54.90
1063;DHT22;520;50.932;6.962;2022-07-15T09:31:34;22.90;55.00
1063;DHT22;520;50.932;6.962;2022-07-15T09:35:16;24.70;52.40
1063;DHT22;520;50.932;6.962;2022-07-15T09:44:13;25.60;48.60
1063;DHT22;520;50.932;6.962;2022-07-15T09:47:26;26.60;47.70
1063;DHT22;520;50.932;6.962;2022-07-15T09:51:08;26.20;46.50
1063;DHT22;520;50.932;6.962;2022-07-15T09:53:42;25.60;47.90
1063;DHT22;520;50.932;6.962;2022-07-15T09:56:21;26.20;48.50
1063;DHT22;520;50.932;6.962;2022-07-15T09:58:59;26.00;48.20
1063;DHT22;520;50.932;6.962;2022-07-15T10:05:12;25.30;49.80
1063;DHT22;520;50.932;6.962;2022-07-15T10:09:08;25.80;48.50
1063;DHT22;520;50.932;6.962;2022-07-15T10:11:47;27.10;45.80
1063;DHT22;520;50.932;6.962;2022-07-15T10:17:19;26.40;47.10
1063;DHT22;520;50.932;6.962;2022-07-15T10:23:19;27.70;45.50
1063;DHT22;520;50.932;6.962;2022-07-15T10:26:54;27.80;44.40
1063;DHT22;520;50.932;6.962;2022-07-15T10:29:03;28.10;43.80
1063;DHT22;520;50.932;6.962;2022-07-15T10:31:38;29.40;41.70
1063;DHT22;520;50.932;6.962;2022-07-15T10:39:17;30.00;39.30
1063;DHT22;520;50.932;6.962;2022-07-15T10:44:22;27.80;41.90
1063;DHT22;520;50.932;6.962;2022-07-15T10:49:44;27.00;44.20
1063;DHT22;520;50.932;6.962;2022-07-15T10:52:20;26.40;44.40
1063;DHT22;520;50.932;6.962;2022-07-15T11:00:29;26.00;45.20
1063;DHT22;520;50.932;6.962;2022-07-15T11:03:13;26.60;44.60
1063;DHT22;520;50.932;6.962;2022-07-15T11:06:00;28.60;41.90
1063;DHT22;520;50.932;6.962;2022-07-15T11:13:47;28.40;39.90
1063;DHT22;520;50.932;6.962;2022-07-15T11:16:21;28.10;40.30
1063;DHT22;520;50.932;6.962;2022-07-15T11:30:54;29.80;37.20
1063;DHT22;520;50.932;6.962;2022-07-15T11:34:13;28.00;38.60
1063;DHT22;520;50.932;6.962;2022-07-15T11:36:44;26.90;40.30
1063;DHT22;520;50.932;6.962;2022-07-15T11:39:45;26.60;41.30
1063;DHT22;520;50.932;6.962;2022-07-15T11:42:44;26.70;41.30
1063;DHT22;520;50.932;6.962;2022-07-15T11:45:43;26.90;41.40
1063;DHT22;520;50.932;6.962;2022-07-15T11:48:15;26.90;41.30
1063;DHT22;520;50.932;6.962;2022-07-15T11:50:56;27.00;40.90
1063;DHT22;520;50.932;6.962;2022-07-15T11:53:41;27.10;41.00
1063;DHT22;520;50.932;6.962;2022-07-15T12:01:08;27.50;40.50
1063;DHT22;520;50.932;6.962;2022-07-15T12:03:41;28.00;39.50
1063;DHT22;520;50.932;6.962;2022-07-15T12:06:19;28.20;39.20
1063;DHT22;520;50.932;6.962;2022-07-15T12:08:50;27.70;39.60
1063;DHT22;520;50.932;6.962;2022-07-15T12:11:36;27.10;40.10
1063;DHT22;520;50.932;6.962;2022-07-15T12:16:52;26.50;42.00
1063;DHT22;520;50.932;6.962;2022-07-15T12:19:25;26.40;42.70
1063;DHT22;520;50.932;6.962;2022-07-15T12:22:16;26.40;42.40
1063;DHT22;520;50.932;6.962;2022-07-15T12:24:48;26.80;42.60
1063;DHT22;520;50.932;6.962;2022-07-15T12:32:48;27.50;40.00
1063;DHT22;520;50.932;6.962;2022-07-15T12:35:15;27.60;39.90
1063;DHT22;520;50.932;6.962;2022-07-15T12:37:48;27.30;40.10
1063;DHT22;520;50.932;6.962;2022-07-15T12:40:23;26.40;41.20
1063;DHT22;520;50.932;6.962;2022-07-15T12:42:53;26.10;42.00
1063;DHT22;520;50.932;6.962;2022-07-15T12:45:24;26.00;42.20
1063;DHT22;520;50.932;6.962;2022-07-15T12:48:08;26.00;42.60
1063;DHT22;520;50.932;6.962;2022-07-15T12:53:23;26.00;42.60
1063;DHT22;520;50.932;6.962;2022-07-15T12:55:58;26.00;42.60
1063;DHT22;520;50.932;6.962;2022-07-15T12:58:31;25.80;43.20
1063;DHT22;520;50.932;6.962;2022-07-15T13:01:05;25.90;43.40
1063;DHT22;520;50.932;6.962;2022-07-15T13:03:33;26.30;43.40
1063;DHT22;520;50.932;6.962;2022-07-15T13:06:00;26.10;43.10
1063;DHT22;520;50.932;6.962;2022-07-15T13:08:31;25.90;43.10
1063;DHT22;520;50.932;6.962;2022-07-15T13:11:00;26.00;43.30
1063;DHT22;520;50.932;6.962;2022-07-15T13:13:30;26.70;43.10
1063;DHT22;520;50.932;6.962;2022-07-15T13:15:58;27.00;42.00
1063;DHT22;520;50.932;6.962;2022-07-15T13:18:26;26.90;41.60
1063;DHT22;520;50.932;6.962;2022-07-15T13:20:54;26.50;42.10
1063;DHT22;520;50.932;6.962;2022-07-15T13:23:22;26.50;41.70
1063;DHT22;520;50.932;6.962;2022-07-15T13:25:53;26.40;41.80
1063;DHT22;520;50.932;6.962;2022-07-15T13:28:21;26.10;42.70
1063;DHT22;520;50.932;6.962;2022-07-15T13:30:49;26.00;43.00
1063;DHT22;520;50.932;6.962;2022-07-15T13:33:16;26.00;43.20
1063;DHT22;520;50.932;6.962;2022-07-15T13:35:43;26.00;43.30
1063;DHT22;520;50.932;6.962;2022-07-15T13:38:10;26.00;42.80
1063;DHT22;520;50.932;6.962;2022-07-15T13:40:37;25.70;43.10
1063;DHT22;520;50.932;6.962;2022-07-15T13:43:03;25.70;43.40
1063;DHT22;520;50.932;6.962;2022-07-15T13:45:30;25.70;43.90
1063;DHT22;520;50.932;6.962;2022-07-15T13:47:57;25.80;44.50
1063;DHT22;520;50.932;6.962;2022-07-15T13:50:25;26.60;43.20
1063;DHT22;520;50.932;6.962;2022-07-15T13:53:10;26.40;43.00
1063;DHT22;520;50.932;6.962;2022-07-15T13:55:37;26.30;43.40
1063;DHT22;520;50.932;6.962;2022-07-15T13:58:06;26.20;43.60
1063;DHT22;520;50.932;6.962;2022-07-15T14:00:32;26.00;43.80
1063;DHT22;520;50.932;6.962;2022-07-15T14:03:00;26.00;43.70
1063;DHT22;520;50.932;6.962;2022-07-15T14:05:27;26.40;43.50
1063;DHT22;520;50.932;6.962;2022-07-15T14:07:53;26.70;42.40
1063;DHT22;520;50.932;6.962;2022-07-15T14:10:21;26.30;42.60
1063;DHT22;520;50.932;6.962;2022-07-15T14:12:48;26.20;42.70
1063;DHT22;520;50.932;6.962;2022-07-15T14:15:15;26.30;42.40
1063;DHT22;520;50.932;6.962;2022-07-15T14:17:49;26.10;42.80
1063;DHT22;520;50.932;6.962;2022-07-15T14:20:16;25.90;42.90
1063;DHT22;520;50.932;6.962;2022-07-15T14:22:43;25.60;43.00
1063;DHT22;520;50.932;6.962;2022-07-15T14:25:10;25.50;43.60
1063;DHT22;520;50.932;6.962;2022-07-15T14:27:38;25.30;43.80
1063;DHT22;520;50.932;6.962;2022-07-15T14:30:06;25.20;44.30
1063;DHT22;520;50.932;6.962;2022-07-15T14:32:36;25.20;44.40
1063;DHT22;520;50.932;6.962;2022-07-15T14:35:03;25.50;44.80
1063;DHT22;520;50.932;6.962;2022-07-15T14:37:30;25.50;44.80
1063;DHT22;520;50.932;6.962;2022-07-15T14:40:02;25.80;44.60
1063;DHT22;520;50.932;6.962;2022-07-15T14:42:30;25.80;44.80
1063;DHT22;520;50.932;6.962;2022-07-15T14:44:58;25.80;44.90
1063;DHT22;520;50.932;6.962;2022-07-15T14:47:25;25.80;45.10
1063;DHT22;520;50.932;6.962;2022-07-15T14:49:52;25.70;44.80
1063;DHT22;520;50.932;6.962;2022-07-15T14:52:21;25.60;44.80
1063;DHT22;520;50.932;6.962;2022-07-15T14:54:48;25.60;45.00
1063;DHT22;520;50.932;6.962;2022-07-15T14:57:14;25.80;45.00
1063;DHT22;520;50.932;6.962;2022-07-15T14:59:43;25.80;44.50
1063;DHT22;520;50.932;6.962;2022-07-15T15:02:10;25.70;44.40
1063;DHT22;520;50.932;6.962;2022-07-15T15:04:37;25.60;44.00
1063;DHT22;520;50.932;6.962;2022-07-15T15:07:04;26.00;43.70
1063;DHT22;520;50.932;6.962;2022-07-15T15:09:31;26.00;43.50
1063;DHT22;520;50.932;6.962;2022-07-15T15:11:58;25.90;43.40
1063;DHT22;520;50.932;6.962;2022-07-15T15:14:31;25.70;43.20
1063;DHT22;520;50.932;6.962;2022-07-15T15:16:58;25.60;44.00
1063;DHT22;520;50.932;6.962;2022-07-15T15:19:28;25.60;43.80
1063;DHT22;520;50.932;6.962;2022-07-15T15:21:55;25.40;44.50
1063;DHT22;520;50.932;6.962;2022-07-15T15:24:22;25.40;44.50
1063;DHT22;520;50.932;6.962;2022-07-15T15:26:49;25.40;44.10
1063;DHT22;520;50.932;6.962;2022-07-15T15:29:19;25.50;44.20
1063;DHT22;520;50.932;6.962;2022-07-15T15:31:47;25.80;43.60
1063;DHT22;520;50.932;6.962;2022-07-15T15:34:16;25.80;43.50
1063;DHT22;520;50.932;6.962;2022-07-15T15:36:43;25.80;43.50
1063;DHT22;520;50.932;6.962;2022-07-15T15:39:11;25.90;43.10
1063;DHT22;520;50.932;6.962;2022-07-15T15:41:38;25.80;43.50
1063;DHT22;520;50.932;6.962;2022-07-15T15:44:05;25.50;44.00
1063;DHT22;520;50.932;6.962;2022-07-15T15:46:33;25.30;43.80
1063;DHT22;520;50.932;6.962;2022-07-15T15:49:00;25.10;44.20
1063;DHT22;520;50.932;6.962;2022-07-15T15:51:27;25.10;44.60
1063;DHT22;520;50.932;6.962;2022-07-15T15:53:54;25.00;45.50
1063;DHT22;520;50.932;6.962;2022-07-15T15:56:21;25.20;45.80
1063;DHT22;520;50.932;6.962;2022-07-15T15:58:48;25.20;45.50
1063;DHT22;520;50.932;6.962;2022-07-15T16:01:17;25.20;45.40
1063;DHT22;520;50.932;6.962;2022-07-15T16:03:44;25.40;45.50
1063;DHT22;520;50.932;6.962;2022-07-15T16:06:30;25.40;45.20
1063;DHT22;520;50.932;6.962;2022-07-15T16:08:57;25.50;44.40
1063;DHT22;520;50.932;6.962;2022-07-15T16:11:24;25.40;44.30
1063;DHT22;520;50.932;6.962;2022-07-15T16:13:51;25.30;44.70
1063;DHT22;520;50.932;6.962;2022-07-15T16:16:18;25.20;45.20
1063;DHT22;520;50.932;6.962;2022-07-15T16:18:46;25.40;44.70
1063;DHT22;520;50.932;6.962;2022-07-15T16:21:13;25.50;44.50
1063;DHT22;520;50.932;6.962;2022-07-15T16:23:41;25.50;44.20
1063;DHT22;520;50.932;6.962;2022-07-15T16:26:15;25.50;44.20
1063;DHT22;520;50.932;6.962;2022-07-15T16:28:44;25.60;43.70
1063;DHT22;520;50.932;6.962;2022-07-15T16:31:11;25.50;43.00
1063;DHT22;520;50.932;6.962;2022-07-15T16:33:48;25.30;43.70
1063;DHT22;520;50.932;6.962;2022-07-15T16:36:15;25.10;44.50
1063;DHT22;520;50.932;6.962;2022-07-15T16:38:43;25.00;45.00
1063;DHT22;520;50.932;6.962;2022-07-15T16:41:19;24.90;45.10
1063;DHT22;520;50.932;6.962;2022-07-15T16:43:50;24.90;45.00
1063;DHT22;520;50.932;6.962;2022-07-15T16:46:17;25.10;44.10
1063;DHT22;520;50.932;6.962;2022-07-15T16:48:53;25.20;42.60
1063;DHT22;520;50.932;6.962;2022-07-15T16:51:27;25.30;42.20
1063;DHT22;520;50.932;6.962;2022-07-15T16:53:54;25.60;41.60
1063;DHT22;520;50.932;6.962;2022-07-15T16:56:21;25.50;41.60
1063;DHT22;520;50.932;6.962;2022-07-15T16:58:48;25.50;41.90
1063;DHT22;520;50.932;6.962;2022-07-15T17:01:15;25.40;42.40
1063;DHT22;520;50.932;6.962;2022-07-15T17:03:45;25.80;42.10
1063;DHT22;520;50.932;6.962;2022-07-15T17:06:11;25.60;41.80
1063;DHT22;520;50.932;6.962;2022-07-15T17:08:38;25.60;42.10
1063;DHT22;520;50.932;6.962;2022-07-15T17:11:05;25.50;42.50
1063;DHT22;520;50.932;6.962;2022-07-15T17:13:32;25.50;42.70
1063;DHT22;520;50.932;6.962;2022-07-15T17:16:07;25.40;43.00
1063;DHT22;520;50.932;6.962;2022-07-15T17:18:37;25.40;43.30
1063;DHT22;520;50.932;6.962;2022-07-15T17:21:09;25.40;43.10
1063;DHT22;520;50.932;6.962;2022-07-15T17:23:39;25.30;43.00
1063;DHT22;520;50.932;6.962;2022-07-15T17:26:13;25.40;43.10
1063;DHT22;520;50.932;6.962;2022-07-15T17:28:43;25.20;42.70
1063;DHT22;520;50.932;6.962;2022-07-15T17:31:14;25.10;42.90
1063;DHT22;520;50.932;6.962;2022-07-15T17:33:41;25.10;43.60
1063;DHT22;520;50.932;6.962;2022-07-15T17:36:16;25.10;43.80
1063;DHT22;520;50.932;6.962;2022-07-15T17:38:50;25.30;44.00
1063;DHT22;520;50.932;6.962;2022-07-15T17:41:17;25.20;43.80
1063;DHT22;520;50.932;6.962;2022-07-15T17:43:53;25.10;43.90
1063;DHT22;520;50.932;6.962;2022-07-15T17:46:23;24.90;43.70
1063;DHT22;520;50.932;6.962;2022-07-15T17:48:57;24.80;44.10
1063;DHT22;520;50.932;6.962;2022-07-15T17:51:24;24.70;43.70
1063;DHT22;520;50.932;6.962;2022-07-15T17:53:51;24.60;43.80
1063;DHT22;520;50.932;6.962;2022-07-15T17:56:20;24.70;44.30
1063;DHT22;520;50.932;6.962;2022-07-15T17:58:49;24.60;44.60
1063;DHT22;520;50.932;6.962;2022-07-15T18:01:44;24.70;45.00
1063;DHT22;520;50.932;6.962;2022-07-15T18:04:17;24.60;44.70
1063;DHT22;520;50.932;6.962;2022-07-15T18:06:49;24.60;44.60
1063;DHT22;520;50.932;6.962;2022-07-15T18:09:19;24.60;44.20
1063;DHT22;520;50.932;6.962;2022-07-15T18:11:51;24.50;44.30
1063;DHT22;520;50.932;6.962;2022-07-15T18:14:21;24.50;44.20
1063;DHT22;520;50.932;6.962;2022-07-15T18:16:48;24.40;44.40
1063;DHT22;520;50.932;6.962;2022-07-15T18:19:17;24.40;44.60
1063;DHT22;520;50.932;6.962;2022-07-15T18:21:54;24.30;45.30